sensor_id;sensor_type;location;lat;lon;timestamp;temperature;humidity
1405;DHT22;697;51.114;6.542;2022-12-08T00:00:44;5.50;99.90
1405;DHT22;697;51.114;6.542;2022-12-08T00:03:11;5.60;99.90
1405;DHT22;697;51.114;6.542;2022-12-08T00:05:42;5.60;99.90
1405;DHT22;697;51.114;6.542;2022-12-08T00:08:27;5.60;99.90
1405;DHT22;697;51.114;6.542;2022-12-08T00:11:11;5.60;99.90
1405;DHT22;697;51.114;6.542;2022-12-08T00:13:38;5.60;99.90
1405;DHT22;697;51.114;6.542;2022-12-08T00:16:07;5.70;99.90
1405;DHT22;697;51.114;6.542;2022-12-08T00:18:34;5.60;99.90
1405;DHT22;697;51.114;6.542;2022-12-08T00:21:00;5.60;99.90
1405;DHT22;697;51.114;6.542;2022-12-08T00:23:27;5.60;99.90
1405;DHT22;697;51.114;6.542;2022-12-08T00:25:54;5.60;99.90
1405;DHT22;697;51.114;6.542;2022-12-08T00:28:21;5.60;99.90
1405;DHT22;697;51.114;6.542;2022-12-08T00:30:47;5.50;99.90
1405;DHT22;697;51.114;6.542;2022-12-08T00:33:15;5.50;99.90
1405;DHT22;697;51.114;6.542;2022-12-08T00:35:42;5.50;99.90
1405;DHT22;697;51.114;6.542;2022-12-08T00:38:09;5.40;99.90
1405;DHT22;697;51.114;6.542;2022-12-08T00:40:35;5.40;99.90
1405;DHT22;697;51.114;6.542;2022-12-08T00:43:02;5.40;99.90
1405;DHT22;697;51.114;6.542;2022-12-08T00:45:29;5.40;99.90
1405;DHT22;697;51.114;6.542;2022-12-08T00:47:55;5.40;99.90
1405;DHT22;697;51.114;6.542;2022-12-08T00:50:24;5.40;99.90
1405;DHT22;697;51.114;6.542;2022-12-08T00:52:50;5.40;99.90
1405;DHT22;697;51.114;6.542;2022-12-08T00:55:17;5.40;99.90
1405;DHT22;697;51.114;6.542;2022-12-08T00:57:44;5.40;99.90
1405;DHT22;697;51.114;6.542;2022-12-08T01:00:11;5.40;99.90
1405;DHT22;697;51.114;6.542;2022-12-08T01:02:38;5.40;99.90
1405;DHT22;697;51.114;6.542;2022-12-08T01:05:05;5.40;99.90
1405;DHT22;697;51.114;6.542;2022-12-08T01:07:33;5.30;99.90
1405;DHT22;697;51.114;6.542;2022-12-08T01:10:00;5.40;99.90
1405;DHT22;697;51.114;6.542;2022-12-08T01:12:28;5.40;99.90
1405;DHT22;697;51.114;6.542;2022-12-08T01:14:54;5.50;99.90
1405;DHT22;697;51.114;6.542;2022-12-08T01:17:21;5.50;99.90
1405;DHT22;697;51.114;6.542;2022-12-08T01:19:48;5.50;99.90
1405;DHT22;697;51.114;6.542;2022-12-08T01:22:15;5.50;99.90
1405;DHT22;697;51.114;6.542;2022-12-08T01:24:43;5.50;99.90
1405;DHT22;697;51.114;6.542;2022-12-08T01:27:10;5.50;99.90
1405;DHT22;697;51.114;6.542;2022-12-08T01:29:36;5.60;99.90
1405;DHT22;697;51.114;6.542;2022-12-08T01:32:03;5.50;99.90
1405;DHT22;697;51.114;6.542;2022-12-08T01:34:30;5.60;99.90
1405;DHT22;697;51.114;6.542;2022-12-08T01:36:57;5.50;99.90
1405;DHT22;697;51.114;6.542;2022-12-08T01:39:23;5.50;99.90
1405;DHT22;697;51.114;6.542;2022-12-08T01:41:52;5.60;99.90
1405;DHT22;697;51.114;6.542;2022-12-08T01:44:57;5.60;99.90
1405;DHT22;697;51.114;6.542;2022-12-08T01:47:29;5.60;99.90
1405;DHT22;697;51.114;6.542;2022-12-08T01:49:58;5.60;99.90
1405;DHT22;697;51.114;6.542;2022-12-08T01:52:29;5.70;99.90
1405;DHT22;697;51.114;6.542;2022-12-08T01:55:01;5.70;99.90
1405;DHT22;697;51.114;6.542;2022-12-08T01:57:33;5.70;99.90
1405;DHT22;697;51.114;6.542;2022-12-08T02:00:07;5.70;99.90
1405;DHT22;697;51.114;6.542;2022-12-08T02:02:38;5.70;99.90
1405;DHT22;697;51.114;6.542;2022-12-08T02:05:09;5.70;99.90
1405;DHT22;697;51.114;6.542;2022-12-08T02:07:37;5.70;99.90
1405;DHT22;697;51.114;6.542;2022-12-08T02:10:06;5.70;99.90
1405;DHT22;697;51.114;6.542;2022-12-08T02:12:34;5.80;99.90
1405;DHT22;697;51.114;6.542;2022-12-08T02:15:01;5.80;99.90
1405;DHT22;697;51.114;6.542;2022-12-08T02:17:39;5.80;99.90
1405;DHT22;697;51.114;6.542;2022-12-08T02:20:33;5.70;99.90
1405;DHT22;697;51.114;6.542;2022-12-08T02:23:08;5.70;99.90
1405;DHT22;697;51.114;6.542;2022-12-08T02:25:45;5.70;99.90
1405;DHT22;697;51.114;6.542;2022-12-08T02:31:27;5.70;99.90
1405;DHT22;697;51.114;6.542;2022-12-08T02:34:07;5.60;99.90
1405;DHT22;697;51.114;6.542;2022-12-08T02:36:41;5.60;99.90
1405;DHT22;697;51.114;6.542;2022-12-08T02:39:19;5.60;99.90
1405;DHT22;697;51.114;6.542;2022-12-08T02:41:55;5.60;99.90
1405;DHT22;697;51.114;6.542;2022-12-08T02:44:28;5.60;99.90
1405;DHT22;697;51.114;6.542;2022-12-08T02:46:59;5.70;99.90
1405;DHT22;697;51.114;6.542;2022-12-08T02:49:31;5.70;99.90
1405;DHT22;697;51.114;6.542;2022-12-08T02:52:39;5.60;99.90
1405;DHT22;697;51.114;6.542;2022-12-08T02:55:10;5.60;99.90
1405;DHT22;697;51.114;6.542;2022-12-08T02:57:50;5.60;99.90
1405;DHT22;697;51.114;6.542;2022-12-08T03:00:19;5.50;99.90
1405;DHT22;697;51.114;6.542;2022-12-08T03:02:56;5.60;99.90
1405;DHT22;697;51.114;6.542;2022-12-08T03:05:38;5.60;99.90
1405;DHT22;697;51.114;6.542;2022-12-08T03:08:11;5.60;99.90
1405;DHT22;697;51.114;6.542;2022-12-08T03:10:43;5.50;99.90
1405;DHT22;697;51.114;6.542;2022-12-08T03:13:13;5.60;99.90
1405;DHT22;697;51.114;6.542;2022-12-08T03:15:43;5.60;99.90
1405;DHT22;697;51.114;6.542;2022-12-08T03:18:14;5.60;99.90
1405;DHT22;697;51.114;6.542;2022-12-08T03:20:44;5.60;99.90
1405;DHT22;697;51.114;6.542;2022-12-08T03:23:14;5.60;99.90
1405;DHT22;697;51.114;6.542;2022-12-08T03:25:45;5.70;99.90
1405;DHT22;697;51.114;6.542;2022-12-08T03:28:14;5.70;99.90
1405;DHT22;697;51.114;6.542;2022-12-08T03:30:43;5.70;99.90
1405;DHT22;697;51.114;6.542;2022-12-08T03:33:16;5.70;99.90
1405;DHT22;697;51.114;6.542;2022-12-08T03:35:45;5.80;99.90
1405;DHT22;697;51.114;6.542;2022-12-08T03:38:15;5.80;99.90
1405;DHT22;697;51.114;6.542;2022-12-08T03:40:42;5.70;99.90
1405;DHT22;697;51.114;6.542;2022-12-08T03:43:29;5.70;99.90
1405;DHT22;697;51.114;6.542;2022-12-08T03:45:56;5.70;99.90
1405;DHT22;697;51.114;6.542;2022-12-08T03:48:22;5.70;99.90
1405;DHT22;697;51.114;6.542;2022-12-08T03:50:50;5.70;99.90
1405;DHT22;697;51.114;6.542;2022-12-08T03:53:17;5.70;99.90
1405;DHT22;697;51.114;6.542;2022-12-08T03:55:44;5.70;99.90
1405;DHT22;697;51.114;6.542;2022-12-08T03:58:10;5.60;99.90
1405;DHT22;697;51.114;6.542;2022-12-08T04:00:37;5.60;99.90
1405;DHT22;697;51.114;6.542;2022-12-08T04:03:04;5.70;99.90
1405;DHT22;697;51.114;6.542;2022-12-08T04:05:30;5.60;99.90
1405;DHT22;697;51.114;6.542;2022-12-08T04:07:58;5.60;99.90
1405;DHT22;697;51.114;6.542;2022-12-08T04:10:27;5.70;99.90
1405;DHT22;697;51.114;6.542;2022-12-08T04:12:55;5.70;99.90
1405;DHT22;697;51.114;6.542;2022-12-08T04:15:22;5.70;99.90
1405;DHT22;697;51.114;6.542;2022-12-08T04:17:49;5.70;99.90
1405;DHT22;697;51.114;6.542;2022-12-08T04:20:15;5.70;99.90
1405;DHT22;697;51.114;6.542;2022-12-08T04:22:42;5.70;99.90
1405;DHT22;697;51.114;6.542;2022-12-08T04:25:10;5.70;99.90
1405;DHT22;697;51.114;6.542;2022-12-08T04:27:37;5.70;99.90
1405;DHT22;697;51.114;6.542;2022-12-08T04:30:05;5.70;99.90
1405;DHT22;697;51.114;6.542;2022-12-08T04:32:32;5.80;99.90
1405;DHT22;697;51.114;6.542;2022-12-08T04:34:58;5.80;99.90
1405;DHT22;697;51.114;6.542;2022-12-08T04:37:27;5.70;99.90
1405;DHT22;697;51.114;6.542;2022-12-08T04:39:54;5.70;99.90
1405;DHT22;697;51.114;6.542;2022-12-08T04:42:24;5.70;99.90
1405;DHT22;697;51.114;6.542;2022-12-08T04:44:50;5.70;99.90
1405;DHT22;697;51.114;6.542;2022-12-08T04:47:17;5.60;99.90
1405;DHT22;697;51.114;6.542;2022-12-08T04:49:45;5.60;99.90
1405;DHT22;697;51.114;6.542;2022-12-08T04:52:11;5.60;99.90
1405;DHT22;697;51.114;6.542;2022-12-08T04:54:38;5.60;99.90
1405;DHT22;697;51.114;6.542;2022-12-08T04:57:05;5.60;99.90
1405;DHT22;697;51.114;6.542;2022-12-08T04:59:33;5.60;99.90
1405;DHT22;697;51.114;6.542;2022-12-08T05:02:00;5.60;99.90
1405;DHT22;697;51.114;6.542;2022-12-08T05:04:26;5.50;99.90
1405;DHT22;697;51.114;6.542;2022-12-08T05:06:53;5.50;99.90
1405;DHT22;697;51.114;6.542;2022-12-08T05:09:20;5.40;99.90
1405;DHT22;697;51.114;6.542;2022-12-08T05:11:47;5.40;99.90
1405;DHT22;697;51.114;6.542;2022-12-08T05:14:15;5.40;99.90
1405;DHT22;697;51.114;6.542;2022-12-08T05:16:44;5.50;99.90
1405;DHT22;697;51.114;6.542;2022-12-08T05:19:11;5.40;99.90
1405;DHT22;697;51.114;6.542;2022-12-08T05:21:39;5.40;99.90
1405;DHT22;697;51.114;6.542;2022-12-08T05:24:07;5.40;99.90
1405;DHT22;697;51.114;6.542;2022-12-08T05:26:34;5.30;99.90
1405;DHT22;697;51.114;6.542;2022-12-08T05:29:01;5.40;99.90
1405;DHT22;697;51.114;6.542;2022-12-08T05:31:27;5.40;99.90
1405;DHT22;697;51.114;6.542;2022-12-08T05:33:56;5.30;99.90
1405;DHT22;697;51.114;6.542;2022-12-08T05:36:22;5.30;99.90
1405;DHT22;697;51.114;6.542;2022-12-08T05:38:49;5.30;99.90
1405;DHT22;697;51.114;6.542;2022-12-08T05:41:19;5.30;99.90
1405;DHT22;697;51.114;6.542;2022-12-08T05:43:46;5.20;99.90
1405;DHT22;697;51.114;6.542;2022-12-08T05:46:14;5.30;99.90
1405;DHT22;697;51.114;6.542;2022-12-08T05:48:40;5.30;99.90
1405;DHT22;697;51.114;6.542;2022-12-08T05:51:15;5.30;99.90
1405;DHT22;697;51.114;6.542;2022-12-08T05:53:42;5.30;99.90
1405;DHT22;697;51.114;6.542;2022-12-08T05:56:09;5.20;99.90
1405;DHT22;697;51.114;6.542;2022-12-08T05:58:36;5.20;99.90
1405;DHT22;697;51.114;6.542;2022-12-08T06:01:02;5.20;99.90
1405;DHT22;697;51.114;6.542;2022-12-08T06:03:29;5.10;99.90
1405;DHT22;697;51.114;6.542;2022-12-08T06:05:56;5.20;99.90
1405;DHT22;697;51.114;6.542;2022-12-08T06:08:24;5.10;99.90
1405;DHT22;697;51.114;6.542;2022-12-08T06:10:51;5.00;99.90
1405;DHT22;697;51.114;6.542;2022-12-08T06:13:17;5.10;99.90
1405;DHT22;697;51.114;6.542;2022-12-08T06:15:44;5.10;99.90
1405;DHT22;697;51.114;6.542;2022-12-08T06:18:11;5.10;99.90
1405;DHT22;697;51.114;6.542;2022-12-08T06:20:37;5.10;99.90
1405;DHT22;697;51.114;6.542;2022-12-08T06:23:04;5.20;99.90
1405;DHT22;697;51.114;6.542;2022-12-08T06:25:32;5.20;99.90
1405;DHT22;697;51.114;6.542;2022-12-08T06:27:59;5.20;99.90
1405;DHT22;697;51.114;6.542;2022-12-08T06:30:25;5.20;99.90
1405;DHT22;697;51.114;6.542;2022-12-08T06:32:53;5.30;99.90
1405;DHT22;697;51.114;6.542;2022-12-08T06:35:19;5.20;99.90
1405;DHT22;697;51.114;6.542;2022-12-08T06:37:46;5.20;99.90
1405;DHT22;697;51.114;6.542;2022-12-08T06:40:13;5.20;99.90
1405;DHT22;697;51.114;6.542;2022-12-08T06:42:42;5.30;99.90
1405;DHT22;697;51.114;6.542;2022-12-08T06:45:10;5.20;99.90
1405;DHT22;697;51.114;6.542;2022-12-08T06:47:36;5.20;99.90
1405;DHT22;697;51.114;6.542;2022-12-08T06:50:04;5.20;99.90
1405;DHT22;697;51.114;6.542;2022-12-08T06:52:31;5.10;99.90
1405;DHT22;697;51.114;6.542;2022-12-08T06:54:58;5.20;99.90
1405;DHT22;697;51.114;6.542;2022-12-08T06:57:24;5.20;99.90
1405;DHT22;697;51.114;6.542;2022-12-08T06:59:52;5.20;99.90
1405;DHT22;697;51.114;6.542;2022-12-08T07:02:19;5.20;99.90
1405;DHT22;697;51.114;6.542;2022-12-08T07:04:46;5.20;99.90
1405;DHT22;697;51.114;6.542;2022-12-08T07:07:12;5.20;99.90
1405;DHT22;697;51.114;6.542;2022-12-08T07:09:39;5.20;99.90
1405;DHT22;697;51.114;6.542;2022-12-08T07:12:06;5.20;99.90
1405;DHT22;697;51.114;6.542;2022-12-08T07:14:33;5.20;99.90
1405;DHT22;697;51.114;6.542;2022-12-08T07:17:01;5.10;99.90
1405;DHT22;697;51.114;6.542;2022-12-08T07:19:27;5.10;99.90
1405;DHT22;697;51.114;6.542;2022-12-08T07:21:54;5.00;99.90
1405;DHT22;697;51.114;6.542;2022-12-08T07:24:21;5.10;99.90
1405;DHT22;697;51.114;6.542;2022-12-08T07:26:48;5.10;99.90
1405;DHT22;697;51.114;6.542;2022-12-08T07:29:14;5.10;99.90
1405;DHT22;697;51.114;6.542;2022-12-08T07:31:41;5.10;99.90
1405;DHT22;697;51.114;6.542;2022-12-08T07:34:11;5.10;99.90
1405;DHT22;697;51.114;6.542;2022-12-08T07:36:38;5.10;99.90
1405;DHT22;697;51.114;6.542;2022-12-08T07:39:05;5.10;99.90
1405;DHT22;697;51.114;6.542;2022-12-08T07:41:31;5.10;99.90
1405;DHT22;697;51.114;6.542;2022-12-08T07:43:58;5.10;99.90
1405;DHT22;697;51.114;6.542;2022-12-08T07:46:26;5.00;99.90
1405;DHT22;697;51.114;6.542;2022-12-08T07:48:53;5.10;99.90
1405;DHT22;697;51.114;6.542;2022-12-08T07:51:22;5.10;99.90
1405;DHT22;697;51.114;6.542;2022-12-08T07:53:50;5.10;99.90
1405;DHT22;697;51.114;6.542;2022-12-08T07:56:17;5.10;99.90
1405;DHT22;697;51.114;6.542;2022-12-08T07:58:44;5.10;99.90
1405;DHT22;697;51.114;6.542;2022-12-08T08:01:19;5.10;99.90
1405;DHT22;697;51.114;6.542;2022-12-08T08:03:46;5.10;99.90
1405;DHT22;697;51.114;6.542;2022-12-08T08:06:13;5.00;99.90
1405;DHT22;697;51.114;6.542;2022-12-08T08:08:41;5.00;99.90
1405;DHT22;697;51.114;6.542;2022-12-08T08:11:08;5.00;99.90
1405;DHT22;697;51.114;6.542;2022-12-08T08:13:35;5.10;99.90
1405;DHT22;697;51.114;6.542;2022-12-08T08:16:03;5.10;99.90
1405;DHT22;697;51.114;6.542;2022-12-08T08:18:30;5.10;99.90
1405;DHT22;697;51.114;6.542;2022-12-08T08:20:57;5.10;99.90
1405;DHT22;697;51.114;6.542;2022-12-08T08:23:23;5.10;99.90
1405;DHT22;697;51.114;6.542;2022-12-08T08:25:51;5.10;99.90
1405;DHT22;697;51.114;6.542;2022-12-08T08:28:18;5.10;99.90
1405;DHT22;697;51.114;6.542;2022-12-08T08:30:46;5.10;99.90
1405;DHT22;697;51.114;6.542;2022-12-08T08:33:12;5.10;99.90
1405;DHT22;697;51.114;6.542;2022-12-08T08:35:39;5.10;99.90
1405;DHT22;697;51.114;6.542;2022-12-08T08:38:06;5.10;99.90
1405;DHT22;697;51.114;6.542;2022-12-08T08:40:33;5.20;99.90
1405;DHT22;697;51.114;6.542;2022-12-08T08:43:02;5.20;99.90
1405;DHT22;697;51.114;6.542;2022-12-08T08:45:30;5.10;99.90
1405;DHT22;697;51.114;6.542;2022-12-08T08:47:57;5.20;99.90
1405;DHT22;697;51.114;6.542;2022-12-08T08:50:24;5.30;99.90
1405;DHT22;697;51.114;6.542;2022-12-08T08:52:51;5.20;99.90
1405;DHT22;697;51.114;6.542;2022-12-08T08:55:17;5.30;99.90
1405;DHT22;697;51.114;6.542;2022-12-08T08:57:44;5.20;99.90
1405;DHT22;697;51.114;6.542;2022-12-08T09:00:14;5.30;99.90
1405;DHT22;697;51.114;6.542;2022-12-08T09:02:40;5.30;99.90
1405;DHT22;697;51.114;6.542;2022-12-08T09:05:07;5.20;99.90
1405;DHT22;697;51.114;6.542;2022-12-08T09:07:34;5.20;99.90
1405;DHT22;697;51.114;6.542;2022-12-08T09:10:01;5.20;99.90
1405;DHT22;697;51.114;6.542;2022-12-08T09:12:28;5.10;99.90
1405;DHT22;697;51.114;6.542;2022-12-08T09:14:54;5.20;99.90
1405;DHT22;697;51.114;6.542;2022-12-08T09:17:22;5.20;99.90
1405;DHT22;697;51.114;6.542;2022-12-08T09:19:49;5.10;99.90
1405;DHT22;697;51.114;6.542;2022-12-08T09:22:16;5.10;99.90
1405;DHT22;697;51.114;6.542;2022-12-08T09:24:42;5.10;99.90
1405;DHT22;697;51.114;6.542;2022-12-08T09:27:09;5.10;99.90
1405;DHT22;697;51.114;6.542;2022-12-08T09:29:36;5.20;99.90
1405;DHT22;697;51.114;6.542;2022-12-08T09:32:04;5.10;99.90
1405;DHT22;697;51.114;6.542;2022-12-08T09:34:33;5.10;99.90
1405;DHT22;697;51.114;6.542;2022-12-08T09:36:59;5.10;99.90
1405;DHT22;697;51.114;6.542;2022-12-08T09:39:26;5.10;99.90
1405;DHT22;697;51.114;6.542;2022-12-08T09:41:57;5.10;99.90
1405;DHT22;697;51.114;6.542;2022-12-08T09:44:42;5.00;99.90
1405;DHT22;697;51.114;6.542;2022-12-08T09:47:17;5.00;99.90
1405;DHT22;697;51.114;6.542;2022-12-08T09:49:50;5.10;99.90
1405;DHT22;697;51.114;6.542;2022-12-08T09:52:23;5.10;99.90
1405;DHT22;697;51.114;6.542;2022-12-08T09:54:51;5.10;99.90
1405;DHT22;697;51.114;6.542;2022-12-08T09:57:19;5.20;99.90
1405;DHT22;697;51.114;6.542;2022-12-08T09:59:51;5.20;99.90
1405;DHT22;697;51.114;6.542;2022-12-08T10:02:21;5.20;99.90
1405;DHT22;697;51.114;6.542;2022-12-08T10:04:50;5.20;99.90
1405;DHT22;697;51.114;6.542;2022-12-08T10:07:23;5.20;99.90
1405;DHT22;697;51.114;6.542;2022-12-08T10:09:57;5.30;99.90
1405;DHT22;697;51.114;6.542;2022-12-08T10:12:30;5.30;99.90
1405;DHT22;697;51.114;6.542;2022-12-08T10:15:02;5.50;99.90
1405;DHT22;697;51.114;6.542;2022-12-08T10:17:39;5.50;99.90
1405;DHT22;697;51.114;6.542;2022-12-08T10:20:14;5.60;99.90
1405;DHT22;697;51.114;6.542;2022-12-08T10:22:41;5.70;99.90
1405;DHT22;697;51.114;6.542;2022-12-08T10:25:14;5.70;99.90
1405;DHT22;697;51.114;6.542;2022-12-08T10:27:42;5.70;99.90
1405;DHT22;697;51.114;6.542;2022-12-08T10:30:11;5.80;99.90
1405;DHT22;697;51.114;6.542;2022-12-08T10:32:38;5.90;99.90
1405;DHT22;697;51.114;6.542;2022-12-08T10:35:11;5.90;99.90
1405;DHT22;697;51.114;6.542;2022-12-08T10:37:38;5.90;99.90
1405;DHT22;697;51.114;6.542;2022-12-08T10:40:10;5.90;99.90
1405;DHT22;697;51.114;6.542;2022-12-08T10:42:39;6.00;99.90
1405;DHT22;697;51.114;6.542;2022-12-08T10:45:25;6.00;99.90
1405;DHT22;697;51.114;6.542;2022-12-08T10:47:59;6.00;99.90
1405;DHT22;697;51.114;6.542;2022-12-08T10:50:35;5.90;99.90
1405;DHT22;697;51.114;6.542;2022-12-08T10:53:12;5.90;99.90
1405;DHT22;697;51.114;6.542;2022-12-08T10:55:41;5.90;99.90
1405;DHT22;697;51.114;6.542;2022-12-08T10:58:25;5.80;99.90
1405;DHT22;697;51.114;6.542;2022-12-08T11:00:54;6.00;99.90
1405;DHT22;697;51.114;6.542;2022-12-08T11:03:25;6.10;99.90
1405;DHT22;697;51.114;6.542;2022-12-08T11:05:57;6.20;99.90
1405;DHT22;697;51.114;6.542;2022-12-08T11:08:25;6.20;99.90
1405;DHT22;697;51.114;6.542;2022-12-08T11:10:52;6.30;99.90
1405;DHT22;697;51.114;6.542;2022-12-08T11:13:20;6.30;99.90
1405;DHT22;697;51.114;6.542;2022-12-08T11:15:49;6.30;99.90
1405;DHT22;697;51.114;6.542;2022-12-08T11:18:23;6.30;99.90
1405;DHT22;697;51.114;6.542;2022-12-08T11:21:01;6.20;99.90
1405;DHT22;697;51.114;6.542;2022-12-08T11:23:36;6.30;99.90
1405;DHT22;697;51.114;6.542;2022-12-08T11:26:06;6.40;99.90
1405;DHT22;697;51.114;6.542;2022-12-08T11:28:38;6.50;99.90
1405;DHT22;697;51.114;6.542;2022-12-08T11:31:14;6.50;99.70
1405;DHT22;697;51.114;6.542;2022-12-08T11:33:43;6.50;99.60
1405;DHT22;697;51.114;6.542;2022-12-08T11:36:13;6.50;99.20
1405;DHT22;697;51.114;6.542;2022-12-08T11:38:45;6.50;99.00
1405;DHT22;697;51.114;6.542;2022-12-08T11:41:15;6.60;99.40
1405;DHT22;697;51.114;6.542;2022-12-08T11:43:47;6.60;99.10
1405;DHT22;697;51.114;6.542;2022-12-08T11:46:19;6.70;99.30
1405;DHT22;697;51.114;6.542;2022-12-08T11:48:50;6.80;99.30
1405;DHT22;697;51.114;6.542;2022-12-08T11:51:29;6.90;98.10
1405;DHT22;697;51.114;6.542;2022-12-08T11:54:11;6.90;98.00
1405;DHT22;697;51.114;6.542;2022-12-08T11:56:41;7.10;98.60
1405;DHT22;697;51.114;6.542;2022-12-08T11:59:16;7.20;97.90
1405;DHT22;697;51.114;6.542;2022-12-08T12:01:44;7.20;97.60
1405;DHT22;697;51.114;6.542;2022-12-08T12:04:17;7.30;97.20
1405;DHT22;697;51.114;6.542;2022-12-08T12:07:20;7.40;97.20
1405;DHT22;697;51.114;6.542;2022-12-08T12:10:04;7.60;97.20
1405;DHT22;697;51.114;6.542;2022-12-08T12:12:45;7.60;96.20
1405;DHT22;697;51.114;6.542;2022-12-08T12:15:50;7.60;96.40
1405;DHT22;697;51.114;6.542;2022-12-08T12:18:24;7.70;96.30
1405;DHT22;697;51.114;6.542;2022-12-08T12:20:54;7.70;96.20
1405;DHT22;697;51.114;6.542;2022-12-08T12:23:30;7.70;95.70
1405;DHT22;697;51.114;6.542;2022-12-08T12:26:02;7.80;95.80
1405;DHT22;697;51.114;6.542;2022-12-08T12:28:38;7.90;95.50
1405;DHT22;697;51.114;6.542;2022-12-08T12:31:08;7.90;95.20
1405;DHT22;697;51.114;6.542;2022-12-08T12:33:36;7.90;95.30
1405;DHT22;697;51.114;6.542;2022-12-08T12:36:05;7.90;95.10
1405;DHT22;697;51.114;6.542;2022-12-08T12:38:36;7.90;94.60
1405;DHT22;697;51.114;6.542;2022-12-08T12:41:23;7.90;94.90
1405;DHT22;697;51.114;6.542;2022-12-08T12:44:19;7.80;94.80
1405;DHT22;697;51.114;6.542;2022-12-08T12:46:57;7.80;94.10
1405;DHT22;697;51.114;6.542;2022-12-08T12:52:43;7.50;94.50
1405;DHT22;697;51.114;6.542;2022-12-08T12:58:47;7.30;94.80
1405;DHT22;697;51.114;6.542;2022-12-08T13:04:19;7.00;95.60
1405;DHT22;697;51.114;6.542;2022-12-08T13:06:53;6.90;95.70
1405;DHT22;697;51.114;6.542;2022-12-08T13:09:31;7.00;96.20
1405;DHT22;697;51.114;6.542;2022-12-08T13:12:00;6.90;96.20
1405;DHT22;697;51.114;6.542;2022-12-08T13:14:35;6.90;95.80
1405;DHT22;697;51.114;6.542;2022-12-08T13:17:08;6.80;95.70
1405;DHT22;697;51.114;6.542;2022-12-08T13:19:37;6.90;95.80
1405;DHT22;697;51.114;6.542;2022-12-08T13:25:43;7.00;95.60
1405;DHT22;697;51.114;6.542;2022-12-08T13:28:17;7.10;95.20
1405;DHT22;697;51.114;6.542;2022-12-08T13:30:47;7.30;95.70
1405;DHT22;697;51.114;6.542;2022-12-08T13:33:17;7.40;95.00
1405;DHT22;697;51.114;6.542;2022-12-08T13:35:54;7.50;93.90
1405;DHT22;697;51.114;6.542;2022-12-08T13:38:26;7.40;93.60
1405;DHT22;697;51.114;6.542;2022-12-08T13:40:54;7.30;93.40
1405;DHT22;697;51.114;6.542;2022-12-08T13:43:32;7.50;93.70
1405;DHT22;697;51.114;6.542;2022-12-08T13:46:04;7.50;94.00
1405;DHT22;697;51.114;6.542;2022-12-08T13:48:41;7.40;93.10
1405;DHT22;697;51.114;6.542;2022-12-08T13:51:13;7.50;93.50
1405;DHT22;697;51.114;6.542;2022-12-08T13:53:43;7.50;93.00
1405;DHT22;697;51.114;6.542;2022-12-08T13:56:10;7.50;93.00
1405;DHT22;697;51.114;6.542;2022-12-08T13:58:38;7.50;93.40
1405;DHT22;697;51.114;6.542;2022-12-08T14:01:11;7.50;93.10
1405;DHT22;697;51.114;6.542;2022-12-08T14:03:46;7.60;93.20
1405;DHT22;697;51.114;6.542;2022-12-08T14:06:15;7.70;93.00
1405;DHT22;697;51.114;6.542;2022-12-08T14:08:45;7.80;92.50
1405;DHT22;697;51.114;6.542;2022-12-08T14:11:23;7.70;92.90
1405;DHT22;697;51.114;6.542;2022-12-08T14:14:00;7.70;92.40
1405;DHT22;697;51.114;6.542;2022-12-08T14:16:32;7.60;92.70
1405;DHT22;697;51.114;6.542;2022-12-08T14:19:06;7.60;92.70
1405;DHT22;697;51.114;6.542;2022-12-08T14:21:40;7.30;92.60
1405;DHT22;697;51.114;6.542;2022-12-08T14:24:07;7.20;93.00
1405;DHT22;697;51.114;6.542;2022-12-08T14:26:36;7.20;93.70
1405;DHT22;697;51.114;6.542;2022-12-08T14:29:06;7.10;93.30
1405;DHT22;697;51.114;6.542;2022-12-08T14:31:34;6.90;94.00
1405;DHT22;697;51.114;6.542;2022-12-08T14:34:00;6.80;94.00
1405;DHT22;697;51.114;6.542;2022-12-08T14:36:27;6.80;94.60
1405;DHT22;697;51.114;6.542;2022-12-08T14:38:56;6.80;94.60
1405;DHT22;697;51.114;6.542;2022-12-08T14:41:31;6.70;94.80
1405;DHT22;697;51.114;6.542;2022-12-08T14:43:59;6.70;94.60
1405;DHT22;697;51.114;6.542;2022-12-08T14:46:26;6.70;95.00
1405;DHT22;697;51.114;6.542;2022-12-08T14:48:54;6.60;94.80
1405;DHT22;697;51.114;6.542;2022-12-08T14:51:27;6.60;95.00
1405;DHT22;697;51.114;6.542;2022-12-08T14:53:56;6.50;94.30
1405;DHT22;697;51.114;6.542;2022-12-08T14:56:27;6.50;94.30
1405;DHT22;697;51.114;6.542;2022-12-08T14:59:11;6.40;94.40
1405;DHT22;697;51.114;6.542;2022-12-08T15:01:40;6.40;94.90
1405;DHT22;697;51.114;6.542;2022-12-08T15:04:18;6.40;94.60
1405;DHT22;697;51.114;6.542;2022-12-08T15:06:49;6.30;94.70
1405;DHT22;697;51.114;6.542;2022-12-08T15:09:28;6.20;94.30
1405;DHT22;697;51.114;6.542;2022-12-08T15:11:59;6.20;94.20
1405;DHT22;697;51.114;6.542;2022-12-08T15:14:30;6.20;94.50
1405;DHT22;697;51.114;6.542;2022-12-08T15:16:57;6.20;94.60
1405;DHT22;697;51.114;6.542;2022-12-08T15:19:27;6.20;94.90
1405;DHT22;697;51.114;6.542;2022-12-08T15:21:56;6.20;94.70
1405;DHT22;697;51.114;6.542;2022-12-08T15:24:26;6.20;95.00
1405;DHT22;697;51.114;6.542;2022-12-08T15:26:54;6.10;94.80
1405;DHT22;697;51.114;6.542;2022-12-08T15:29:22;6.10;95.20
1405;DHT22;697;51.114;6.542;2022-12-08T15:31:51;6.00;95.30
1405;DHT22;697;51.114;6.542;2022-12-08T15:34:18;6.10;95.40
1405;DHT22;697;51.114;6.542;2022-12-08T15:36:48;6.10;95.30
1405;DHT22;697;51.114;6.542;2022-12-08T15:39:26;6.00;95.30
1405;DHT22;697;51.114;6.542;2022-12-08T15:41:53;6.00;95.30
1405;DHT22;697;51.114;6.542;2022-12-08T15:44:20;6.10;95.40
1405;DHT22;697;51.114;6.542;2022-12-08T15:46:47;6.10;95.00
1405;DHT22;697;51.114;6.542;2022-12-08T15:49:16;6.10;94.90
1405;DHT22;697;51.114;6.542;2022-12-08T15:51:43;6.00;94.70
1405;DHT22;697;51.114;6.542;2022-12-08T15:54:12;6.00;95.00
1405;DHT22;697;51.114;6.542;2022-12-08T15:56:43;6.10;95.00
1405;DHT22;697;51.114;6.542;2022-12-08T15:59:13;6.00;94.90
1405;DHT22;697;51.114;6.542;2022-12-08T16:01:41;6.10;94.70
1405;DHT22;697;51.114;6.542;2022-12-08T16:04:12;6.10;94.80
1405;DHT22;697;51.114;6.542;2022-12-08T16:06:39;6.00;94.80
1405;DHT22;697;51.114;6.542;2022-12-08T16:09:15;6.00;94.90
1405;DHT22;697;51.114;6.542;2022-12-08T16:11:43;6.00;95.10
1405;DHT22;697;51.114;6.542;2022-12-08T16:14:27;6.00;95.00
1405;DHT22;697;51.114;6.542;2022-12-08T16:16:54;6.00;95.20
1405;DHT22;697;51.114;6.542;2022-12-08T16:19:20;5.90;95.30
1405;DHT22;697;51.114;6.542;2022-12-08T16:21:47;6.00;95.60
1405;DHT22;697;51.114;6.542;2022-12-08T16:24:15;6.00;95.80
1405;DHT22;697;51.114;6.542;2022-12-08T16:26:42;6.00;95.90
1405;DHT22;697;51.114;6.542;2022-12-08T16:29:15;6.10;96.10
1405;DHT22;697;51.114;6.542;2022-12-08T16:31:42;6.10;96.10
1405;DHT22;697;51.114;6.542;2022-12-08T16:34:09;6.20;96.10
1405;DHT22;697;51.114;6.542;2022-12-08T16:36:36;6.30;96.10
1405;DHT22;697;51.114;6.542;2022-12-08T16:39:03;6.30;96.00
1405;DHT22;697;51.114;6.542;2022-12-08T16:41:31;6.30;95.70
1405;DHT22;697;51.114;6.542;2022-12-08T16:44:15;6.20;95.60
1405;DHT22;697;51.114;6.542;2022-12-08T16:46:42;6.20;95.80
1405;DHT22;697;51.114;6.542;2022-12-08T16:49:09;6.20;95.70
1405;DHT22;697;51.114;6.542;2022-12-08T16:51:35;6.30;95.80
1405;DHT22;697;51.114;6.542;2022-12-08T16:54:02;6.30;95.60
1405;DHT22;697;51.114;6.542;2022-12-08T16:56:30;6.30;95.50
1405;DHT22;697;51.114;6.542;2022-12-08T16:58:57;6.20;95.60
1405;DHT22;697;51.114;6.542;2022-12-08T17:01:23;6.20;95.70
1405;DHT22;697;51.114;6.542;2022-12-08T17:03:50;6.30;95.80
1405;DHT22;697;51.114;6.542;2022-12-08T17:06:17;6.20;95.80
1405;DHT22;697;51.114;6.542;2022-12-08T17:08:44;6.20;95.80